ROT273L LROP-LGAV
Flight info
| Callsign | ROT273L |
|---|---|
| Flight time | N/A |
| Altitude | 31000 |
| Route | POLU1K POLUN TIMUR N181 NIKTI KOROS UG33 NEVRA NEVR1Q |
| Aircraft | A20N/M-SDE2E3FGHIJ1RWXY/LB1 |
Departure
| Time | 2026-04-30 14:05 |
|---|---|
| Airport | Bucharest Henri Coandă International Airport (LROP) |
Arrival
| Time | N/A |
|---|---|
| Airport | Athens Eleftherios Venizelos International Airport (LGAV) |
| Time | Latitude | Longitude | Altitude | Speed | Heading |
|---|---|---|---|---|---|
| 2026-04-30 13:32 | 44.57018 | 26.08079 | 324 ft | 0 kts | 354° |
| 2026-04-30 13:56 | 44.57004 | 26.08081 | 323 ft | 3 kts | 354° |
| 2026-04-30 13:56 | 44.56986 | 26.08083 | 321 ft | 3 kts | 354° |
| 2026-04-30 13:56 | 44.56967 | 26.08086 | 323 ft | 3 kts | 354° |
| 2026-04-30 13:57 | 44.56950 | 26.08091 | 323 ft | 3 kts | 13° |
| 2026-04-30 13:57 | 44.56937 | 26.08077 | 322 ft | 2 kts | 85° |
| 2026-04-30 13:57 | 44.56937 | 26.08074 | 321 ft | 0 kts | 89° |
| 2026-04-30 14:00 | 44.56937 | 26.08072 | 323 ft | 0 kts | 89° |
| 2026-04-30 14:01 | 44.56939 | 26.08127 | 323 ft | 18 kts | 86° |
| 2026-04-30 14:01 | 44.56951 | 26.08294 | 322 ft | 9 kts | 83° |
| 2026-04-30 14:01 | 44.56969 | 26.08355 | 321 ft | 1 kts | 7° |
| 2026-04-30 14:01 | 44.57026 | 26.08337 | 323 ft | 13 kts | 348° |
| 2026-04-30 14:02 | 44.57111 | 26.08329 | 322 ft | 9 kts | 20° |
| 2026-04-30 14:02 | 44.57201 | 26.08366 | 323 ft | 9 kts | 19° |
| 2026-04-30 14:02 | 44.57242 | 26.08455 | 323 ft | 10 kts | 66° |
| 2026-04-30 14:02 | 44.57284 | 26.08498 | 323 ft | 5 kts | 356° |
| 2026-04-30 14:03 | 44.57324 | 26.08492 | 320 ft | 9 kts | 354° |
| 2026-04-30 14:03 | 44.57454 | 26.08471 | 323 ft | 24 kts | 353° |
| 2026-04-30 14:03 | 44.57514 | 26.08463 | 323 ft | 0 kts | 354° |
| 2026-04-30 14:04 | 44.57649 | 26.08482 | 324 ft | 25 kts | 44° |
| 2026-04-30 14:04 | 44.57704 | 26.08927 | 321 ft | 82 kts | 83° |
| 2026-04-30 14:04 | 44.57786 | 26.10065 | 324 ft | 152 kts | 85° |
| 2026-04-30 14:05 | 44.57890 | 26.11577 | 1076 ft | 149 kts | 82° |
| 2026-04-30 14:05 | 44.57974 | 26.12958 | 2238 ft | 136 kts | 88° |
| 2026-04-30 14:05 | 44.57856 | 26.14413 | 2783 ft | 164 kts | 90° |
| 2026-04-30 14:05 | 44.57896 | 26.16091 | 3328 ft | 176 kts | 84° |
| 2026-04-30 14:06 | 44.57989 | 26.17817 | 4038 ft | 184 kts | 85° |
| 2026-04-30 14:06 | 44.57524 | 26.21905 | 4712 ft | 246 kts | 122° |
| 2026-04-30 14:07 | 44.54569 | 26.25151 | 5459 ft | 298 kts | 152° |
| 2026-04-30 14:07 | 44.52605 | 26.26404 | 5808 ft | 322 kts | 156° |
| 2026-04-30 14:07 | 44.50478 | 26.27613 | 6423 ft | 337 kts | 157° |
| 2026-04-30 14:08 | 44.45995 | 26.30228 | 7720 ft | 361 kts | 156° |
| 2026-04-30 14:08 | 44.43694 | 26.31638 | 8704 ft | 362 kts | 160° |
| 2026-04-30 14:08 | 44.38688 | 26.32557 | 10282 ft | 373 kts | 191° |
| 2026-04-30 14:09 | 44.36212 | 26.31397 | 10842 ft | 382 kts | 210° |
| 2026-04-30 14:09 | 44.34195 | 26.29042 | 11814 ft | 379 kts | 230° |
| 2026-04-30 14:09 | 44.31927 | 26.22366 | 13330 ft | 392 kts | 254° |
| 2026-04-30 14:10 | 44.31278 | 26.18643 | 14043 ft | 397 kts | 255° |
| 2026-04-30 14:10 | 44.30397 | 26.14970 | 14785 ft | 397 kts | 250° |
| 2026-04-30 14:10 | 44.29436 | 26.11410 | 15682 ft | 394 kts | 249° |
| 2026-04-30 14:10 | 44.28410 | 26.07870 | 16577 ft | 393 kts | 249° |
| 2026-04-30 14:11 | 44.27345 | 26.04361 | 17310 ft | 395 kts | 248° |
| 2026-04-30 14:11 | 44.26249 | 26.00838 | 18024 ft | 396 kts | 248° |
| 2026-04-30 14:11 | 44.25138 | 25.97312 | 18711 ft | 397 kts | 248° |
| 2026-04-30 14:11 | 44.24022 | 25.93786 | 19292 ft | 399 kts | 248° |
| 2026-04-30 14:12 | 44.22900 | 25.90238 | 19908 ft | 401 kts | 248° |
| 2026-04-30 14:12 | 44.21776 | 25.86673 | 20523 ft | 402 kts | 248° |
| 2026-04-30 14:12 | 44.20655 | 25.83109 | 21085 ft | 403 kts | 248° |
| 2026-04-30 14:12 | 44.19904 | 25.80720 | 21477 ft | 404 kts | 248° |
| 2026-04-30 14:13 | 44.18387 | 25.75927 | 22471 ft | 402 kts | 247° |
| 2026-04-30 14:13 | 44.17271 | 25.72373 | 23251 ft | 399 kts | 248° |
| 2026-04-30 14:13 | 44.16165 | 25.68839 | 24070 ft | 396 kts | 248° |
| 2026-04-30 14:13 | 44.15071 | 25.65339 | 24779 ft | 392 kts | 248° |
| 2026-04-30 14:14 | 44.13983 | 25.61869 | 25504 ft | 388 kts | 248° |
| 2026-04-30 14:14 | 44.12909 | 25.58451 | 26252 ft | 383 kts | 248° |
| 2026-04-30 14:14 | 44.11850 | 25.55089 | 27014 ft | 377 kts | 248° |
| 2026-04-30 14:14 | 44.10804 | 25.51778 | 27788 ft | 370 kts | 249° |
| 2026-04-30 14:15 | 44.09770 | 25.48503 | 28223 ft | 371 kts | 249° |
| 2026-04-30 14:15 | 44.08735 | 25.45227 | 28393 ft | 377 kts | 248° |
| 2026-04-30 14:15 | 44.07668 | 25.41869 | 28542 ft | 383 kts | 248° |
| 2026-04-30 14:15 | 44.06579 | 25.38458 | 28783 ft | 386 kts | 248° |
| 2026-04-30 14:16 | 44.05489 | 25.35064 | 29402 ft | 381 kts | 248° |
| 2026-04-30 14:16 | 44.04424 | 25.31746 | 30235 ft | 371 kts | 249° |
| 2026-04-30 14:16 | 44.03381 | 25.28490 | 30773 ft | 367 kts | 249° |
| 2026-04-30 14:16 | 44.02339 | 25.25227 | 30968 ft | 372 kts | 249° |
| 2026-04-30 14:17 | 44.01281 | 25.21915 | 30989 ft | 379 kts | 249° |
| 2026-04-30 14:17 | 43.99106 | 25.15141 | 30989 ft | 384 kts | 249° |
| 2026-04-30 14:18 | 43.96922 | 25.08388 | 30995 ft | 383 kts | 249° |
| 2026-04-30 14:18 | 43.93642 | 24.98275 | 30997 ft | 383 kts | 248° |
| 2026-04-30 14:19 | 43.90352 | 24.88162 | 30999 ft | 383 kts | 248° |
| 2026-04-30 14:20 | 43.88170 | 24.81474 | 30997 ft | 383 kts | 248° |
| 2026-04-30 14:20 | 43.84853 | 24.71337 | 30997 ft | 383 kts | 248° |
| 2026-04-30 14:21 | 43.82645 | 24.64618 | 30983 ft | 383 kts | 248° |
| 2026-04-30 14:22 | 43.79314 | 24.54511 | 31026 ft | 385 kts | 248° |
| 2026-04-30 14:22 | 43.75975 | 24.44406 | 31002 ft | 388 kts | 248° |
| 2026-04-30 14:23 | 43.71266 | 24.30975 | 30999 ft | 390 kts | 242° |
| 2026-04-30 14:24 | 43.67755 | 24.25188 | 31001 ft | 398 kts | 228° |
| 2026-04-30 14:24 | 43.65530 | 24.22863 | 31000 ft | 405 kts | 220° |
| 2026-04-30 14:25 | 43.60279 | 24.19715 | 31002 ft | 422 kts | 204° |
| 2026-04-30 14:25 | 43.54351 | 24.18679 | 31004 ft | 435 kts | 194° |
| 2026-04-30 14:26 | 43.46267 | 24.18476 | 30998 ft | 437 kts | 192° |
| 2026-04-30 14:27 | 43.37154 | 24.18293 | 30988 ft | 436 kts | 193° |
| 2026-04-30 14:27 | 43.31079 | 24.18083 | 31013 ft | 438 kts | 193° |
| 2026-04-30 14:28 | 43.24978 | 24.17856 | 31269 ft | 440 kts | 193° |
| 2026-04-30 14:28 | 43.21915 | 24.17742 | 31281 ft | 440 kts | 193° |
| 2026-04-30 14:28 | 43.15790 | 24.17518 | 31281 ft | 440 kts | 193° |
| 2026-04-30 14:29 | 43.03542 | 24.17073 | 31275 ft | 443 kts | 193° |
| 2026-04-30 14:31 | 42.88106 | 24.16516 | 31259 ft | 446 kts | 193° |
| 2026-04-30 14:31 | 42.78782 | 24.16185 | 31245 ft | 447 kts | 193° |
| 2026-04-30 14:32 | 42.69427 | 24.15851 | 31233 ft | 449 kts | 193° |
| 2026-04-30 14:33 | 42.63221 | 24.15632 | 31230 ft | 449 kts | 193° |
| 2026-04-30 14:33 | 42.53842 | 24.15301 | 31214 ft | 450 kts | 193° |
| 2026-04-30 14:34 | 42.47570 | 24.15075 | 31200 ft | 452 kts | 193° |
| 2026-04-30 14:34 | 42.41271 | 24.14851 | 31209 ft | 453 kts | 193° |
| 2026-04-30 14:35 | 42.31793 | 24.14520 | 31192 ft | 454 kts | 193° |
| 2026-04-30 14:36 | 42.25468 | 24.14299 | 31194 ft | 455 kts | 193° |
| 2026-04-30 14:36 | 42.19141 | 24.14079 | 31188 ft | 455 kts | 193° |
| 2026-04-30 14:37 | 42.12814 | 24.13857 | 31199 ft | 455 kts | 193° |
| 2026-04-30 14:37 | 42.06528 | 24.13639 | 31185 ft | 454 kts | 193° |
| 2026-04-30 14:38 | 42.00201 | 24.13416 | 31178 ft | 454 kts | 193° |
| 2026-04-30 14:38 | 41.93862 | 24.13191 | 31170 ft | 456 kts | 193° |
| 2026-04-30 14:39 | 41.87499 | 24.12973 | 31164 ft | 457 kts | 193° |
| 2026-04-30 14:39 | 41.81148 | 24.12745 | 31142 ft | 456 kts | 193° |
| 2026-04-30 14:40 | 41.71640 | 24.12415 | 31136 ft | 458 kts | 192° |
| 2026-04-30 14:40 | 41.65261 | 24.12205 | 31110 ft | 458 kts | 192° |
| 2026-04-30 14:41 | 41.58877 | 24.11988 | 31084 ft | 459 kts | 192° |
| 2026-04-30 14:41 | 41.52432 | 24.12318 | 31080 ft | 475 kts | 181° |
| 2026-04-30 14:42 | 41.45928 | 24.14335 | 31084 ft | 482 kts | 175° |
| 2026-04-30 14:42 | 41.39466 | 24.16758 | 31052 ft | 482 kts | 174° |
| 2026-04-30 14:43 | 41.32990 | 24.19077 | 31054 ft | 482 kts | 175° |
| 2026-04-30 14:43 | 41.26483 | 24.20967 | 31050 ft | 470 kts | 184° |
| 2026-04-30 14:44 | 41.19974 | 24.21763 | 31016 ft | 470 kts | 185° |
| 2026-04-30 14:44 | 41.13471 | 24.22443 | 31045 ft | 474 kts | 185° |
| 2026-04-30 14:45 | 41.06876 | 24.23168 | 31043 ft | 475 kts | 185° |
| 2026-04-30 14:45 | 41.00290 | 24.23933 | 31042 ft | 475 kts | 185° |
| 2026-04-30 14:46 | 40.93668 | 24.24705 | 31043 ft | 479 kts | 184° |
| 2026-04-30 14:46 | 40.87015 | 24.25482 | 31042 ft | 480 kts | 184° |
| 2026-04-30 14:47 | 40.80359 | 24.26260 | 31038 ft | 480 kts | 184° |
| 2026-04-30 14:47 | 40.73699 | 24.27035 | 31037 ft | 480 kts | 184° |
| 2026-04-30 14:48 | 40.67035 | 24.27808 | 31034 ft | 480 kts | 184° |
| 2026-04-30 14:48 | 40.60369 | 24.28578 | 31034 ft | 480 kts | 184° |
| 2026-04-30 14:49 | 40.53757 | 24.29340 | 31034 ft | 480 kts | 183° |
| 2026-04-30 14:49 | 40.47113 | 24.30105 | 31034 ft | 479 kts | 183° |
| 2026-04-30 14:50 | 40.37141 | 24.31249 | 31011 ft | 479 kts | 182° |
| 2026-04-30 14:51 | 40.27170 | 24.32389 | 31025 ft | 479 kts | 182° |
| 2026-04-30 14:52 | 40.17222 | 24.33525 | 31023 ft | 478 kts | 182° |
| 2026-04-30 14:52 | 40.07308 | 24.34649 | 31020 ft | 478 kts | 182° |
| 2026-04-30 14:53 | 39.97353 | 24.35784 | 31019 ft | 479 kts | 182° |
| 2026-04-30 14:54 | 39.84102 | 24.37284 | 31013 ft | 477 kts | 182° |
| 2026-04-30 14:55 | 39.74181 | 24.38401 | 31004 ft | 477 kts | 181° |
| 2026-04-30 14:56 | 39.60990 | 24.39881 | 31007 ft | 475 kts | 181° |
| 2026-04-30 14:57 | 39.51167 | 24.40982 | 30813 ft | 470 kts | 181° |
| 2026-04-30 14:57 | 39.44688 | 24.41710 | 29556 ft | 464 kts | 181° |
| 2026-04-30 14:58 | 39.38303 | 24.42429 | 28347 ft | 456 kts | 181° |
| 2026-04-30 14:58 | 39.35150 | 24.42783 | 27735 ft | 453 kts | 181° |
| 2026-04-30 14:58 | 39.28903 | 24.43478 | 26262 ft | 453 kts | 181° |
| 2026-04-30 14:59 | 39.22604 | 24.44180 | 24872 ft | 453 kts | 180° |
| 2026-04-30 15:00 | 39.13268 | 24.45230 | 23066 ft | 444 kts | 180° |
| 2026-04-30 15:00 | 39.07168 | 24.45911 | 21845 ft | 435 kts | 180° |
| 2026-04-30 15:01 | 39.01160 | 24.46578 | 20527 ft | 431 kts | 180° |
| 2026-04-30 15:01 | 38.99184 | 24.46797 | 20080 ft | 429 kts | 180° |
| 2026-04-30 15:01 | 38.92267 | 24.47567 | 18588 ft | 424 kts | 180° |
| 2026-04-30 15:02 | 38.89353 | 24.47894 | 18134 ft | 416 kts | 180° |
| 2026-04-30 15:02 | 38.86511 | 24.48213 | 17995 ft | 405 kts | 180° |
| 2026-04-30 15:03 | 38.78106 | 24.49119 | 17987 ft | 407 kts | 180° |
| 2026-04-30 15:03 | 38.72466 | 24.49729 | 17987 ft | 407 kts | 180° |
| 2026-04-30 15:04 | 38.66826 | 24.50342 | 17983 ft | 407 kts | 180° |
| 2026-04-30 15:04 | 38.58366 | 24.51264 | 17994 ft | 407 kts | 180° |
| 2026-04-30 15:05 | 38.49950 | 24.52181 | 16857 ft | 400 kts | 180° |
| 2026-04-30 15:06 | 38.44443 | 24.52785 | 16032 ft | 395 kts | 180° |
| 2026-04-30 15:06 | 38.38941 | 24.53381 | 15987 ft | 397 kts | 180° |
| 2026-04-30 15:07 | 38.33454 | 24.53908 | 15990 ft | 394 kts | 185° |
| 2026-04-30 15:07 | 38.28133 | 24.52975 | 15983 ft | 378 kts | 195° |
| 2026-04-30 15:08 | 38.23020 | 24.51728 | 15277 ft | 371 kts | 196° |
| 2026-04-30 15:08 | 38.15484 | 24.49894 | 13676 ft | 363 kts | 196° |
| 2026-04-30 15:09 | 38.10546 | 24.48705 | 12490 ft | 359 kts | 195° |
| 2026-04-30 15:09 | 38.05889 | 24.47419 | 11994 ft | 318 kts | 209° |
| 2026-04-30 15:10 | 38.02568 | 24.44401 | 11986 ft | 290 kts | 226° |
| 2026-04-30 15:11 | 37.96397 | 24.37710 | 11989 ft | 292 kts | 226° |
| 2026-04-30 15:11 | 37.93306 | 24.34372 | 11993 ft | 291 kts | 226° |
| 2026-04-30 15:12 | 37.89196 | 24.29944 | 11951 ft | 291 kts | 226° |
| 2026-04-30 15:13 | 37.86115 | 24.26635 | 11140 ft | 289 kts | 226° |
| 2026-04-30 15:14 | 37.80107 | 24.20226 | 9336 ft | 275 kts | 226° |
| 2026-04-30 15:14 | 37.75770 | 24.15580 | 7655 ft | 269 kts | 226° |
| 2026-04-30 15:16 | 37.68798 | 24.07949 | 4992 ft | 263 kts | 226° |
| 2026-04-30 15:17 | 37.67015 | 24.00334 | 4020 ft | 231 kts | 285° |
| 2026-04-30 15:18 | 37.68984 | 23.91396 | 3093 ft | 201 kts | 285° |
| 2026-04-30 15:19 | 37.70312 | 23.86342 | 2989 ft | 202 kts | 299° |